createdAt,value
2023-03-16T00:02:05.513Z,14.10
2023-03-16T00:04:37.680Z,13.15
2023-03-16T00:07:10.570Z,13.52
2023-03-16T00:09:41.534Z,14.15
2023-03-16T00:12:19.334Z,8.10
2023-03-16T00:14:48.484Z,12.40
2023-03-16T00:17:21.066Z,16.55
2023-03-16T00:19:51.749Z,16.70
2023-03-16T00:22:18.650Z,17.70
2023-03-16T00:24:45.536Z,15.05
2023-03-16T00:27:14.963Z,11.00
2023-03-16T00:29:49.572Z,13.18
2023-03-16T00:32:18.682Z,10.02
2023-03-16T00:34:46.521Z,15.90
2023-03-16T00:37:15.979Z,15.80
2023-03-16T00:39:44.259Z,14.45
2023-03-16T00:42:13.049Z,8.52
2023-03-16T00:44:41.788Z,11.25
2023-03-16T00:47:09.806Z,10.65
2023-03-16T00:49:36.903Z,10.85
2023-03-16T00:52:07.901Z,17.05
2023-03-16T00:54:34.833Z,8.02
2023-03-16T00:57:02.648Z,10.35
2023-03-16T00:59:31.184Z,10.38
2023-03-16T01:01:58.204Z,12.00
2023-03-16T01:04:25.089Z,7.25
2023-03-16T01:06:52.068Z,7.78
2023-03-16T01:09:19.026Z,9.52
2023-03-16T01:11:46.618Z,12.98
2023-03-16T01:14:13.550Z,11.18
2023-03-16T01:16:40.601Z,11.60
2023-03-16T01:19:07.677Z,9.30
2023-03-16T01:21:37.064Z,12.02
2023-03-16T01:24:04.606Z,12.50
2023-03-16T01:26:32.455Z,12.55
2023-03-16T01:28:59.390Z,9.23
2023-03-16T01:31:26.725Z,15.63
2023-03-16T01:33:53.643Z,10.20
2023-03-16T01:36:21.166Z,10.32
2023-03-16T01:38:48.477Z,12.05
2023-03-16T01:41:16.165Z,14.20
2023-03-16T01:43:43.655Z,11.15
2023-03-16T01:46:23.122Z,10.48
2023-03-16T01:49:10.924Z,17.92
2023-03-16T01:51:52.155Z,20.95
2023-03-16T01:54:25.935Z,14.27
2023-03-16T01:57:04.810Z,8.30
2023-03-16T01:59:36.336Z,20.63
2023-03-16T02:02:03.475Z,12.85
2023-03-16T02:04:40.895Z,16.73
2023-03-16T02:07:09.230Z,15.52
2023-03-16T02:09:42.809Z,19.70
2023-03-16T02:12:17.952Z,9.57
2023-03-16T02:14:49.901Z,9.32
2023-03-16T02:17:20.992Z,11.32
2023-03-16T02:20:11.351Z,12.25
2023-03-16T02:22:43.120Z,10.25
2023-03-16T02:25:11.811Z,8.75
2023-03-16T02:27:46.734Z,12.43
2023-03-16T02:30:16.179Z,9.65
2023-03-16T02:32:46.596Z,12.80
2023-03-16T02:35:13.794Z,15.48
2023-03-16T02:37:41.968Z,10.40
2023-03-16T02:40:25.801Z,9.65
2023-03-16T02:43:07.527Z,9.70
2023-03-16T02:45:52.669Z,13.77
2023-03-16T02:48:25.343Z,9.63
2023-03-16T02:50:54.041Z,13.23
2023-03-16T02:53:21.811Z,10.38
2023-03-16T02:55:48.790Z,11.70
2023-03-16T02:58:16.409Z,10.63
2023-03-16T03:00:43.699Z,13.15
2023-03-16T03:03:10.783Z,10.95
2023-03-16T03:05:38.233Z,15.80
2023-03-16T03:08:06.252Z,9.85
2023-03-16T03:10:33.277Z,11.80
2023-03-16T03:13:00.374Z,11.48
2023-03-16T03:15:27.373Z,10.13
2023-03-16T03:17:54.324Z,10.88
2023-03-16T03:20:21.789Z,8.57
2023-03-16T03:22:55.073Z,8.32
2023-03-16T03:25:22.993Z,11.20
2023-03-16T03:27:51.727Z,11.57
2023-03-16T03:30:21.930Z,12.57
2023-03-16T03:32:49.551Z,10.55
2023-03-16T03:35:16.665Z,12.05
2023-03-16T03:37:44.633Z,8.63
2023-03-16T03:40:14.858Z,10.48
2023-03-16T03:42:42.624Z,8.32
2023-03-16T03:45:13.830Z,11.98
2023-03-16T03:47:42.362Z,11.50
2023-03-16T03:50:11.163Z,14.40
2023-03-16T03:52:38.108Z,8.70
2023-03-16T03:55:06.072Z,8.90
2023-03-16T03:57:33.146Z,9.10
2023-03-16T04:00:00.091Z,8.20
2023-03-16T04:02:27.162Z,10.57
2023-03-16T04:04:54.316Z,9.43
2023-03-16T04:07:21.311Z,10.05
2023-03-16T04:09:48.245Z,10.45
2023-03-16T04:12:15.190Z,8.13
2023-03-16T04:14:42.098Z,12.57
2023-03-16T04:17:09.389Z,9.38
2023-03-16T04:19:36.426Z,11.85
2023-03-16T04:22:03.493Z,12.30
2023-03-16T04:24:30.421Z,10.25
2023-03-16T04:26:57.372Z,11.75
2023-03-16T04:29:25.502Z,11.52
2023-03-16T04:31:53.946Z,9.20
2023-03-16T04:34:25.223Z,13.50
2023-03-16T04:36:55.194Z,9.10
2023-03-16T04:39:23.603Z,9.63
2023-03-16T04:41:51.503Z,9.82
2023-03-16T04:44:18.617Z,12.40
2023-03-16T04:46:45.574Z,13.80
2023-03-16T04:49:12.542Z,12.75
2023-03-16T04:51:40.827Z,10.18
2023-03-16T04:54:08.224Z,13.50
2023-03-16T04:56:35.436Z,17.02
2023-03-16T04:59:02.455Z,13.18
2023-03-16T05:01:29.498Z,13.32
2023-03-16T05:03:58.624Z,10.02
2023-03-16T05:06:26.640Z,12.13
2023-03-16T05:08:53.583Z,13.50
2023-03-16T05:11:20.896Z,11.77
2023-03-16T05:13:47.797Z,14.70
2023-03-16T05:16:14.850Z,13.02
2023-03-16T05:18:41.852Z,11.98
2023-03-16T05:21:09.124Z,10.75
2023-03-16T05:23:36.078Z,11.45
2023-03-16T05:26:03.142Z,10.55
2023-03-16T05:28:30.086Z,13.98
2023-03-16T05:30:57.994Z,10.02
2023-03-16T05:33:25.066Z,10.93
2023-03-16T05:35:52.481Z,14.70
2023-03-16T05:38:19.726Z,12.88
2023-03-16T05:40:53.050Z,13.88
2023-03-16T05:43:21.253Z,14.98
2023-03-16T05:45:48.325Z,13.30
2023-03-16T05:48:15.594Z,17.38
2023-03-16T05:50:42.542Z,13.55
2023-03-16T05:53:09.588Z,15.02
2023-03-16T05:55:36.549Z,18.13
2023-03-16T05:58:05.661Z,12.38
2023-03-16T06:00:33.019Z,15.55
2023-03-16T06:03:01.663Z,11.82
2023-03-16T06:05:29.691Z,20.92
2023-03-16T06:07:56.679Z,14.77
2023-03-16T06:10:26.696Z,10.60
2023-03-16T06:12:53.895Z,15.35
2023-03-16T06:15:25.061Z,14.25
2023-03-16T06:17:52.542Z,15.48
2023-03-16T06:20:19.557Z,15.38
2023-03-16T06:22:46.490Z,17.88
2023-03-16T06:25:14.845Z,14.40
2023-03-16T06:27:42.548Z,16.73
2023-03-16T06:30:12.123Z,25.33
2023-03-16T06:32:42.179Z,14.10
2023-03-16T06:35:10.330Z,17.00
2023-03-16T06:37:37.303Z,15.57
2023-03-16T06:40:05.474Z,14.63
2023-03-16T06:42:32.368Z,13.25
2023-03-16T06:44:59.409Z,13.77
2023-03-16T06:47:26.480Z,17.05
2023-03-16T06:49:55.358Z,13.30
2023-03-16T06:52:22.880Z,13.20
2023-03-16T06:54:49.856Z,9.57
2023-03-16T06:57:16.969Z,12.15
2023-03-16T06:59:43.950Z,10.80
2023-03-16T07:02:13.924Z,10.27
2023-03-16T07:04:42.131Z,12.80
2023-03-16T07:07:10.261Z,10.20
2023-03-16T07:09:40.314Z,10.65
2023-03-16T07:12:09.544Z,9.07
2023-03-16T07:14:36.644Z,12.77
2023-03-16T07:17:03.589Z,11.85
2023-03-16T07:19:30.549Z,16.95
2023-03-16T07:21:57.473Z,10.70
2023-03-16T07:24:24.610Z,9.70
2023-03-16T07:26:53.174Z,13.93
2023-03-16T07:33:07.507Z,8.30
2023-03-16T07:35:34.718Z,10.15
2023-03-16T07:41:49.570Z,11.68
2023-03-16T07:44:16.600Z,10.20
2023-03-16T07:46:43.543Z,10.85
2023-03-16T07:49:12.330Z,13.02
2023-03-16T07:51:39.658Z,10.82
2023-03-16T07:54:06.598Z,11.82
2023-03-16T07:56:47.456Z,9.50
2023-03-16T07:59:15.576Z,9.27
2023-03-16T08:01:42.470Z,8.00
2023-03-16T08:04:12.488Z,10.57
2023-03-16T08:06:39.565Z,10.23
2023-03-16T08:09:06.577Z,7.93
2023-03-16T08:11:33.512Z,10.02
2023-03-16T08:14:00.453Z,13.25
2023-03-16T08:16:28.770Z,9.10
2023-03-16T08:18:59.834Z,13.60
2023-03-16T08:21:26.893Z,11.43
2023-03-16T08:23:53.925Z,8.32
2023-03-16T08:26:21.640Z,11.40
2023-03-16T08:28:52.014Z,12.35
2023-03-16T08:31:20.654Z,12.57
2023-03-16T08:33:48.687Z,14.65
2023-03-16T08:36:18.059Z,10.45
2023-03-16T08:38:59.876Z,11.60
2023-03-16T08:41:34.840Z,10.48
2023-03-16T08:44:03.339Z,9.38
2023-03-16T08:46:31.211Z,7.93
2023-03-16T08:48:58.329Z,10.15
2023-03-16T08:51:25.391Z,11.20
2023-03-16T08:53:52.909Z,8.20
2023-03-16T08:56:20.209Z,8.05
2023-03-16T08:58:47.345Z,7.43
2023-03-16T09:01:17.657Z,6.50
2023-03-16T09:03:46.488Z,12.57
2023-03-16T09:06:16.608Z,6.32
2023-03-16T09:08:45.553Z,7.40
2023-03-16T09:11:15.000Z,7.15
2023-03-16T09:13:42.984Z,7.30
2023-03-16T09:16:12.227Z,7.00
2023-03-16T09:18:40.093Z,12.05
2023-03-16T09:21:10.600Z,7.18
2023-03-16T09:23:37.878Z,8.68
2023-03-16T09:26:07.706Z,6.82
2023-03-16T09:28:38.795Z,6.85
2023-03-16T09:31:07.438Z,9.63
2023-03-16T09:33:35.619Z,5.53
2023-03-16T09:36:03.795Z,4.18
2023-03-16T09:38:31.727Z,6.13
2023-03-16T09:41:17.225Z,6.70
2023-03-16T09:43:50.003Z,7.97
2023-03-16T09:46:33.383Z,6.68
2023-03-16T09:51:41.308Z,8.80
2023-03-16T09:54:24.126Z,4.30
2023-03-16T09:56:54.594Z,6.47
2023-03-16T09:59:22.924Z,4.57
2023-03-16T10:05:33.154Z,7.28
2023-03-16T10:08:24.652Z,8.18
2023-03-16T10:11:18.376Z,7.22
2023-03-16T10:13:54.356Z,7.65
2023-03-16T10:16:38.424Z,8.85
2023-03-16T10:19:30.909Z,8.85
2023-03-16T10:22:02.476Z,5.50
2023-03-16T10:24:39.077Z,6.85
2023-03-16T10:27:13.105Z,7.45
2023-03-16T10:29:40.070Z,6.85
2023-03-16T10:32:16.695Z,8.98
2023-03-16T10:34:48.802Z,6.80
2023-03-16T10:37:15.985Z,6.13
2023-03-16T10:39:45.661Z,9.88
2023-03-16T10:42:17.838Z,8.07
2023-03-16T10:44:45.272Z,5.50
2023-03-16T10:47:38.533Z,9.85
2023-03-16T10:50:18.563Z,7.10
2023-03-16T10:52:48.201Z,5.47
2023-03-16T10:55:21.840Z,5.53
2023-03-16T10:57:55.200Z,5.97
2023-03-16T11:00:42.049Z,6.95
2023-03-16T11:03:29.246Z,4.80
2023-03-16T11:06:03.534Z,5.00
2023-03-16T11:08:39.266Z,6.53
2023-03-16T11:11:29.241Z,6.28
2023-03-16T11:14:01.269Z,5.78
2023-03-16T11:16:39.354Z,5.88
2023-03-16T11:19:27.366Z,5.68
2023-03-16T11:22:06.837Z,5.53
2023-03-16T11:24:50.806Z,5.28
2023-03-16T11:27:21.498Z,8.38
2023-03-16T11:30:07.210Z,5.25
2023-03-16T11:32:38.078Z,5.75
2023-03-16T11:35:28.855Z,2.80
2023-03-16T11:38:10.580Z,4.65
2023-03-16T11:41:05.932Z,6.75
2023-03-16T11:43:51.257Z,3.78
2023-03-16T11:46:40.366Z,4.93
2023-03-16T11:49:10.131Z,3.42
2023-03-16T11:51:47.996Z,7.07
2023-03-16T11:54:33.681Z,3.75
2023-03-16T11:57:14.462Z,3.60
2023-03-16T12:00:01.361Z,9.30
2023-03-16T12:03:10.861Z,16.27
2023-03-16T12:05:59.869Z,4.90
2023-03-16T12:08:50.585Z,6.47
2023-03-16T12:11:39.772Z,5.40
2023-03-16T12:14:23.496Z,4.57
2023-03-16T12:17:10.091Z,5.10
2023-03-16T12:19:52.410Z,8.32
2023-03-16T12:22:28.534Z,5.93
2023-03-16T12:24:55.464Z,3.83
2023-03-16T12:27:27.730Z,5.20
2023-03-16T12:30:20.895Z,3.88
2023-03-16T12:32:57.007Z,4.22
2023-03-16T12:35:36.677Z,7.95
2023-03-16T12:38:15.980Z,6.63
2023-03-16T12:40:55.267Z,3.97
2023-03-16T12:43:34.162Z,4.90
2023-03-16T12:46:10.203Z,5.35
2023-03-16T12:48:45.997Z,5.90
2023-03-16T12:51:13.048Z,4.43
2023-03-16T12:53:47.064Z,4.72
2023-03-16T12:56:34.854Z,6.15
2023-03-16T12:59:07.695Z,6.90
2023-03-16T13:01:42.578Z,5.05
2023-03-16T13:04:12.827Z,7.45
2023-03-16T13:06:45.595Z,7.03
2023-03-16T13:09:18.553Z,6.25
2023-03-16T13:11:50.476Z,6.45
2023-03-16T13:14:40.794Z,6.30
2023-03-16T13:17:24.794Z,7.53
2023-03-16T13:20:30.413Z,5.17
2023-03-16T13:23:23.424Z,8.10
2023-03-16T13:26:27.403Z,5.18
2023-03-16T13:28:55.427Z,7.85
2023-03-16T13:31:27.800Z,6.45
2023-03-16T13:34:00.234Z,8.18
2023-03-16T13:36:30.233Z,6.20
2023-03-16T13:39:27.485Z,7.63
2023-03-16T13:42:18.037Z,9.30
2023-03-16T13:44:45.582Z,11.77
2023-03-16T13:47:20.085Z,8.57
2023-03-16T13:49:50.968Z,9.52
2023-03-16T13:52:29.515Z,9.18
2023-03-16T13:54:58.769Z,6.63
2023-03-16T13:57:28.630Z,7.07
2023-03-16T14:00:24.900Z,8.88
2023-03-16T14:02:55.674Z,9.35
2023-03-16T14:05:33.238Z,8.40
2023-03-16T14:08:05.152Z,6.57
2023-03-16T14:10:36.593Z,6.95
2023-03-16T14:13:34.098Z,6.88
2023-03-16T14:16:10.314Z,7.82
2023-03-16T14:18:42.446Z,4.15
2023-03-16T14:21:28.871Z,7.45
2023-03-16T14:24:02.193Z,6.68
2023-03-16T14:26:43.877Z,4.05
2023-03-16T14:29:28.457Z,9.73
2023-03-16T14:31:55.748Z,6.72
2023-03-16T14:34:35.828Z,5.15
2023-03-16T14:37:20.205Z,7.88
2023-03-16T14:39:59.201Z,4.50
2023-03-16T14:42:26.137Z,6.80
2023-03-16T14:44:53.175Z,4.13
2023-03-16T14:47:26.311Z,6.45
2023-03-16T14:49:53.468Z,12.10
2023-03-16T14:52:24.278Z,8.57
2023-03-16T14:54:52.358Z,9.13
2023-03-16T14:57:19.877Z,13.13
2023-03-16T15:03:37.458Z,7.85
2023-03-16T15:06:04.583Z,5.88
2023-03-16T15:08:37.283Z,6.90
2023-03-16T15:11:06.714Z,5.03
2023-03-16T15:13:57.084Z,8.38
2023-03-16T15:16:24.146Z,7.95
2023-03-16T15:18:52.080Z,4.15
2023-03-16T15:21:23.366Z,4.80
2023-03-16T15:27:37.908Z,15.13
2023-03-16T15:30:15.209Z,7.22
2023-03-16T15:32:42.248Z,9.23
2023-03-16T15:35:09.604Z,5.80
2023-03-16T15:37:37.531Z,9.38
2023-03-16T15:40:22.403Z,16.45
2023-03-16T15:46:36.716Z,8.50
2023-03-16T15:49:03.683Z,8.45
2023-03-16T15:55:24.399Z,9.07
2023-03-16T15:57:58.934Z,11.60
2023-03-16T16:02:53.549Z,6.45
2023-03-16T16:05:23.457Z,4.80
2023-03-16T16:07:51.190Z,7.55
2023-03-16T16:10:18.517Z,6.38
2023-03-16T16:12:51.559Z,8.20
2023-03-16T16:15:31.147Z,11.50
2023-03-16T16:18:20.019Z,9.20
2023-03-16T16:20:46.156Z,6.63
2023-03-16T16:23:14.049Z,10.20
2023-03-16T16:25:43.259Z,8.48
2023-03-16T16:28:23.115Z,6.35
2023-03-16T16:30:50.718Z,6.72
2023-03-16T16:33:24.930Z,7.45
2023-03-16T16:35:53.850Z,9.43
2023-03-16T16:38:22.069Z,7.85
2023-03-16T16:40:50.260Z,6.28
2023-03-16T16:43:32.540Z,11.50
2023-03-16T16:46:02.066Z,8.20
2023-03-16T16:48:40.718Z,7.97
2023-03-16T16:51:26.162Z,12.23
2023-03-16T16:53:58.683Z,8.50
2023-03-16T16:56:31.949Z,9.02
2023-03-16T16:59:02.517Z,10.90
2023-03-16T17:01:35.399Z,7.63
2023-03-16T17:04:03.182Z,7.97
2023-03-16T17:06:30.556Z,8.77
2023-03-16T17:08:57.603Z,12.95
2023-03-16T17:11:32.532Z,9.73
2023-03-16T17:14:02.301Z,6.38
2023-03-16T17:16:35.848Z,11.73
2023-03-16T17:19:03.633Z,11.97
2023-03-16T17:21:31.792Z,7.85
2023-03-16T17:24:00.405Z,9.93
2023-03-16T17:26:45.647Z,17.92
2023-03-16T17:29:30.532Z,12.48
2023-03-16T17:31:58.962Z,12.57
2023-03-16T17:34:28.946Z,11.50
2023-03-16T17:36:56.598Z,12.52
2023-03-16T17:39:29.797Z,7.35
2023-03-16T17:41:59.075Z,10.43
2023-03-16T17:44:30.474Z,12.30
2023-03-16T17:46:57.640Z,10.10
2023-03-16T17:49:28.731Z,9.95
2023-03-16T17:51:56.301Z,7.55
2023-03-16T17:54:23.463Z,8.07
2023-03-16T17:56:52.965Z,13.85
2023-03-16T17:59:22.167Z,8.18
2023-03-16T18:01:49.255Z,11.75
2023-03-16T18:04:25.888Z,10.85
2023-03-16T18:06:53.648Z,8.15
2023-03-16T18:09:21.209Z,8.52
2023-03-16T18:11:51.410Z,9.50
2023-03-16T18:14:39.894Z,7.50
2023-03-16T18:17:29.601Z,7.45
2023-03-16T18:19:57.593Z,8.93
2023-03-16T18:22:25.295Z,13.88
2023-03-16T18:24:54.064Z,7.82
2023-03-16T18:27:21.642Z,10.38
2023-03-16T18:29:48.916Z,11.57
2023-03-16T18:32:25.313Z,6.80
2023-03-16T18:34:53.386Z,10.25
2023-03-16T18:37:28.150Z,9.88
2023-03-16T18:39:55.416Z,7.53
2023-03-16T18:42:28.814Z,7.00
2023-03-16T18:44:56.291Z,13.97
2023-03-16T18:47:24.639Z,8.27
2023-03-16T18:49:54.165Z,9.25
2023-03-16T18:52:22.701Z,7.80
2023-03-16T18:54:50.469Z,10.40
2023-03-16T18:57:20.214Z,9.98
2023-03-16T18:59:47.567Z,9.93
2023-03-16T19:02:39.141Z,12.30
2023-03-16T19:05:18.734Z,8.90
2023-03-16T19:07:48.929Z,6.68
2023-03-16T19:10:48.072Z,7.85
2023-03-16T19:13:21.658Z,13.38
2023-03-16T19:15:53.393Z,9.88
2023-03-16T19:18:21.360Z,8.32
2023-03-16T19:20:50.432Z,10.00
2023-03-16T19:23:33.152Z,8.45
2023-03-16T19:26:00.160Z,11.65
2023-03-16T19:28:34.164Z,8.57
2023-03-16T19:31:04.267Z,9.50
2023-03-16T19:33:31.813Z,9.80
2023-03-16T19:35:59.463Z,14.65
2023-03-16T19:38:27.025Z,14.43
2023-03-16T19:40:58.011Z,12.40
2023-03-16T19:43:26.126Z,12.48
2023-03-16T19:45:55.115Z,13.93
2023-03-16T19:48:42.485Z,13.73
2023-03-16T19:51:17.607Z,11.93
2023-03-16T19:53:45.728Z,15.02
2023-03-16T19:56:15.783Z,13.32
2023-03-16T19:58:45.847Z,10.85
2023-03-16T20:05:00.957Z,13.82
2023-03-16T20:07:28.354Z,11.80
2023-03-16T20:09:55.873Z,16.13
2023-03-16T20:12:26.202Z,20.80
2023-03-16T20:14:54.371Z,16.15
2023-03-16T20:17:29.809Z,14.32
2023-03-16T20:19:57.549Z,13.75
2023-03-16T20:22:27.915Z,17.35
2023-03-16T20:24:58.511Z,19.80
2023-03-16T20:27:27.829Z,16.00
2023-03-16T20:29:55.158Z,12.43
2023-03-16T20:32:24.937Z,16.80
2023-03-16T20:34:53.701Z,19.75
2023-03-16T20:37:27.209Z,15.40
2023-03-16T20:39:56.049Z,13.77
2023-03-16T20:42:30.636Z,14.52
2023-03-16T20:47:26.857Z,18.67
2023-03-16T20:49:57.546Z,16.35
2023-03-16T20:52:30.515Z,17.40
2023-03-16T20:54:58.348Z,14.85
2023-03-16T20:57:27.614Z,15.85
2023-03-16T20:59:55.617Z,11.80
2023-03-16T21:02:30.147Z,15.45
2023-03-16T21:11:21.899Z,14.02
2023-03-16T21:13:49.151Z,13.70
2023-03-16T21:16:16.740Z,14.70
2023-03-16T21:22:34.966Z,18.20
2023-03-16T21:25:02.041Z,14.68
2023-03-16T21:27:32.107Z,18.70
2023-03-16T21:30:04.819Z,16.75
2023-03-16T21:32:33.895Z,16.80
2023-03-16T21:35:00.938Z,17.05
2023-03-16T21:37:28.096Z,15.43
2023-03-16T21:39:55.074Z,16.58
2023-03-16T21:42:22.289Z,13.73
2023-03-16T21:44:49.332Z,18.83
2023-03-16T21:47:26.664Z,16.05
2023-03-16T21:49:54.809Z,17.20
2023-03-16T21:52:27.882Z,14.02
2023-03-16T21:54:56.168Z,16.00
2023-03-16T21:57:23.425Z,14.80
2023-03-16T21:59:51.266Z,11.68
2023-03-16T22:02:22.783Z,13.82
2023-03-16T22:04:51.238Z,13.38
2023-03-16T22:07:19.609Z,14.63
2023-03-16T22:09:46.669Z,12.55
2023-03-16T22:12:14.504Z,13.77
2023-03-16T22:14:42.163Z,12.02
2023-03-16T22:17:20.277Z,13.07
2023-03-16T22:19:47.895Z,13.00
2023-03-16T22:22:17.092Z,12.25
2023-03-16T22:24:44.050Z,9.38
2023-03-16T22:27:22.769Z,11.63
2023-03-16T22:29:51.283Z,13.18
2023-03-16T22:32:21.364Z,13.05
2023-03-16T22:34:49.899Z,22.60
2023-03-16T22:37:23.187Z,15.57
2023-03-16T22:39:50.594Z,13.02
2023-03-16T22:42:38.733Z,10.68
2023-03-16T22:45:19.192Z,9.35
2023-03-16T22:47:47.918Z,11.00
2023-03-16T22:50:16.764Z,11.70
2023-03-16T22:52:46.379Z,10.65
2023-03-16T22:55:22.594Z,15.25
2023-03-16T22:58:02.370Z,10.52
2023-03-16T23:00:29.503Z,14.43
2023-03-16T23:02:57.635Z,10.55
2023-03-16T23:05:28.033Z,15.18
2023-03-16T23:07:56.395Z,17.10
2023-03-16T23:10:28.418Z,10.88
2023-03-16T23:12:56.039Z,8.45
2023-03-16T23:15:28.815Z,13.68
2023-03-16T23:17:56.555Z,13.50
2023-03-16T23:20:27.776Z,12.02
2023-03-16T23:22:55.537Z,13.27
2023-03-16T23:25:23.696Z,11.45
2023-03-16T23:27:51.913Z,10.77
2023-03-16T23:30:25.864Z,10.68
2023-03-16T23:32:54.195Z,8.52
2023-03-16T23:35:24.539Z,11.27
2023-03-16T23:37:53.288Z,10.18
2023-03-16T23:40:21.796Z,9.90
2023-03-16T23:42:49.556Z,11.10
2023-03-16T23:45:24.821Z,8.98
2023-03-16T23:47:53.730Z,12.23
2023-03-16T23:50:27.655Z,13.20
2023-03-16T23:52:55.993Z,12.48
2023-03-16T23:55:24.120Z,11.20
2023-03-16T23:57:51.447Z,8.38
